Stations météo

Publicité
Vannes/Sene, France (7210): Température de l'air & dewpoint: 14.09.2020 22:00:00 - 20.09.2020 22:00:00 (CEST)Vannes/Sene, France (7210): Vitesse du vent & gusts: 14.09.2020 22:00:00 - 20.09.2020 22:00:00 (CEST)Vannes/Sene, France (7210): Direction du vent: 14.09.2020 22:00:00 - 20.09.2020 22:00:00 (CEST)Vannes/Sene, France (7210): Ensoleillement: 14.09.2020 22:00:00 - 20.09.2020 22:00:00 (CEST)Vannes/Sene, France (7210): Quantités de précipitations: 14.09.2020 22:00:00 - 20.09.2020 22:00:00 (CEST)
Date & Time tt [°C] td [°C] ff [km/h] ff [knt] fx [km/h] fx [knt] dd sd [min] rr [mm]
20.09.2020 22:00:00 19,6 17,2 10 5 17 9 N 0 0,0
20.09.2020 21:00:00 20,0 17,2 10 5 17 9 N 0 0,0
20.09.2020 20:00:00 21,1 17,5 8 5 16 9 NNW 49 0,0
20.09.2020 19:00:00 22,2 18,6 9 5 19 10 WSW 27 0,0
20.09.2020 18:00:00 22,4 18,2 5 3 14 8 NNW 0 0,0
20.09.2020 17:00:00 24,4 18,3 7 4 17 9 N 56 0,0
20.09.2020 16:00:00 - - - - - - - - -
20.09.2020 15:00:00 22,5 18,1 4 2 16 9 SW 2 0,0
20.09.2020 14:00:00 23,0 17,7 6 3 13 7 ESE 37 0,0
20.09.2020 13:00:00 20,7 17,7 4 2 11 6 NE 0 0,0
20.09.2020 12:00:00 19,3 17,3 4 2 13 7 N 6 0,0
20.09.2020 11:00:00 18,5 17,2 6 3 17 9 N 0 0,0
20.09.2020 10:00:00 - - - - - - - - -
20.09.2020 09:00:00 16,9 16,6 5 3 11 6 N 0 0,0
20.09.2020 08:00:00 16,6 16,3 5 3 11 6 NNE 0 0,0
20.09.2020 07:00:00 16,2 15,7 4 2 6 3 NW 0 0,0
20.09.2020 06:00:00 16,7 16,1 2 1 7 4 N 0 0,0
20.09.2020 05:00:00 17,3 16,7 3 2 10 6 NE 0 0,0
20.09.2020 04:00:00 17,7 16,9 6 4 13 7 NNE 0 0,0
20.09.2020 03:00:00 18,2 17,4 7 4 16 8 N 0 0,0
20.09.2020 02:00:00 18,6 17,4 9 5 16 8 NNE 0 0,0
20.09.2020 01:00:00 19,1 17,8 8 4 18 10 NNE 0 0,0
20.09.2020 00:00:00 18,6 17,6 5 3 9 5 NNW 0 0,0
19.09.2020 23:00:00 18,5 17,5 5 3 8 4 NW 0 0,0
19.09.2020 22:00:00 19,2 18,0 3 1 7 4 W 0 0,0
19.09.2020 21:00:00 19,8 18,5 4 2 13 7 W 0 0,0
19.09.2020 20:00:00 20,4 17,6 3 2 11 6 SW 0 0,0
19.09.2020 19:00:00 21,5 17,5 5 3 11 6 W 0 0,0
19.09.2020 18:00:00 21,3 18,3 6 3 18 10 WSW 5 0,0
19.09.2020 17:00:00 23,4 18,3 6 4 14 8 WSW 14 0,0
19.09.2020 16:00:00 22,5 18,1 5 3 11 6 SW 4 0,0
19.09.2020 15:00:00 21,5 17,9 8 5 13 7 N 7 0,0
19.09.2020 14:00:00 20,7 17,7 4 2 11 6 WSW 0 0,0
19.09.2020 13:00:00 19,6 16,6 2 1 23 13 NNW 0 0,0
19.09.2020 12:00:00 19,9 17,1 11 6 22 12 NE 0 0,0
19.09.2020 11:00:00 20,0 18,7 6 4 12 7 E 0 0,0
19.09.2020 10:00:00 19,4 18,4 5 3 14 8 NE 0 0,2
19.09.2020 09:00:00 19,1 18,3 5 3 13 7 E 0 0,0
19.09.2020 08:00:00 19,0 17,8 6 3 15 8 E 0 0,0
19.09.2020 07:00:00 18,8 17,1 6 3 13 7 E 0 0,0
19.09.2020 06:00:00 18,4 16,4 6 4 12 6 E 0 0,0
19.09.2020 05:00:00 17,2 16,1 5 3 8 5 NNE 0 0,0
19.09.2020 04:00:00 17,6 15,9 3 1 8 4 NNE 0 0,0
19.09.2020 03:00:00 17,8 16,0 2 1 8 5 E 0 0,0
19.09.2020 02:00:00 18,4 16,2 5 3 9 5 NE 0 0,0
19.09.2020 01:00:00 17,9 16,4 5 3 10 5 E 0 0,0
19.09.2020 00:00:00 18,3 16,3 0 0 8 5 N 0 0,0
18.09.2020 23:00:00 19,9 16,3 4 2 13 7 E 0 0,0
18.09.2020 22:00:00 - - - - - - - - -
18.09.2020 21:00:00 20,8 16,6 4 2 14 7 ESE 0 0,0
18.09.2020 20:00:00 21,5 16,2 7 4 20 11 E 0 0,0
18.09.2020 19:00:00 21,3 16,9 8 4 17 9 ENE 0 0,0
18.09.2020 18:00:00 21,0 17,4 9 5 16 9 NE 0 0,2
18.09.2020 17:00:00 22,6 17,1 5 3 11 6 NE 0 0,0
18.09.2020 16:00:00 24,1 15,3 7 4 19 10 E 0 0,0
18.09.2020 15:00:00 24,5 14,6 12 7 26 14 ESE 10 0,0
18.09.2020 14:00:00 25,2 15,5 13 7 33 18 E 37 0,0
18.09.2020 13:00:00 24,2 14,6 15 8 33 18 E 60 0,0
18.09.2020 12:00:00 21,3 13,0 11 6 31 17 E 26 0,0
18.09.2020 11:00:00 20,3 12,3 16 8 38 20 ENE 45 0,0
18.09.2020 10:00:00 18,9 11,2 16 9 40 22 ENE 30 0,0
18.09.2020 09:00:00 17,2 9,9 15 8 33 18 ENE 3 0,0
18.09.2020 08:00:00 17,1 8,8 14 7 40 21 NE 0 0,0
18.09.2020 07:00:00 17,6 8,4 16 9 43 23 NE 0 0,0
18.09.2020 06:00:00 18,0 7,7 18 10 42 23 ENE 0 0,0
18.09.2020 05:00:00 18,0 6,8 16 9 37 20 ENE 0 0,0
18.09.2020 04:00:00 - - - - - - - - -
18.09.2020 03:00:00 18,7 7,5 16 9 38 20 NE 0 0,0
18.09.2020 02:00:00 19,6 8,6 16 9 38 20 NE 0 0,0
18.09.2020 01:00:00 20,7 9,9 17 9 38 21 ENE 0 0,0
18.09.2020 00:00:00 21,5 12,1 16 9 35 19 NE 0 0,0
17.09.2020 23:00:00 22,3 13,9 14 8 35 19 NE 0 0,0
17.09.2020 22:00:00 - - - - - - - - -
17.09.2020 21:00:00 24,8 12,4 11 6 29 16 NE 0 0,0
17.09.2020 20:00:00 26,8 14,2 13 7 32 17 NE 8 0,0
17.09.2020 19:00:00 - - - - - - - - -
17.09.2020 18:00:00 - - - - - - - - -
17.09.2020 17:00:00 30,2 14,3 16 9 40 22 E 60 0,0
17.09.2020 16:00:00 29,4 15,1 18 10 41 22 ENE 60 0,0
17.09.2020 15:00:00 28,2 16,1 18 10 41 22 ENE 60 0,0
17.09.2020 14:00:00 26,9 16,5 18 10 38 20 ENE 60 0,0
17.09.2020 13:00:00 25,3 16,7 17 9 35 19 ENE 60 0,0
17.09.2020 12:00:00 23,7 15,7 16 8 36 19 ENE 60 0,0
17.09.2020 11:00:00 21,7 15,8 15 8 36 19 ENE 60 0,0
17.09.2020 10:00:00 19,8 15,2 16 8 35 19 NE 60 0,0
17.09.2020 09:00:00 18,1 15,0 15 8 29 16 NE 24 0,0
17.09.2020 08:00:00 17,2 14,8 13 7 27 15 NE 0 0,0
17.09.2020 07:00:00 17,2 15,4 16 9 29 16 NNE 0 0,0
17.09.2020 06:00:00 17,3 15,6 14 7 26 14 NNE 0 0,0
17.09.2020 05:00:00 17,5 16,0 15 8 30 16 NNE 0 0,0
17.09.2020 04:00:00 17,7 16,0 14 8 29 15 NNE 0 0,0
17.09.2020 03:00:00 17,8 16,0 12 7 29 15 NNE 0 0,0
17.09.2020 02:00:00 18,1 16,1 11 6 23 13 NNE 0 0,0
17.09.2020 01:00:00 18,5 16,3 10 5 21 12 NNE 0 0,0
17.09.2020 00:00:00 19,3 16,3 12 7 26 14 N 0 0,0
16.09.2020 23:00:00 20,1 16,3 12 7 24 13 NNE 0 0,0
16.09.2020 22:00:00 21,2 16,4 14 8 26 14 NNE 0 0,0
16.09.2020 21:00:00 22,9 16,4 13 7 27 14 NNE 0 0,0
16.09.2020 20:00:00 24,8 15,7 16 9 31 17 NNE 8 0,0
16.09.2020 19:00:00 26,7 16,9 13 7 32 17 NNE 60 0,0
16.09.2020 18:00:00 27,9 16,2 13 7 29 16 NNE 60 0,0
16.09.2020 17:00:00 28,3 16,2 16 8 28 15 NNE 60 0,0
16.09.2020 16:00:00 28,3 16,9 12 6 24 13 NNE 60 0,0
16.09.2020 15:00:00 27,9 16,8 10 6 28 15 NE 60 0,0
16.09.2020 14:00:00 26,8 17,3 11 6 23 12 NNE 60 0,0
16.09.2020 13:00:00 25,3 17,0 11 6 21 11 NE 60 0,0
16.09.2020 12:00:00 23,5 16,8 10 5 18 10 NNE 60 0,0
16.09.2020 11:00:00 21,2 16,4 10 5 17 9 NNE 60 0,0
16.09.2020 10:00:00 19,5 16,0 11 6 18 10 NNE 60 0,0
16.09.2020 09:00:00 16,5 16,0 0 0 8 5 N 28 0,2
16.09.2020 08:00:00 15,1 14,6 0 0 6 4 N 0 0,0
16.09.2020 07:00:00 15,2 14,6 4 2 6 3 N 0 0,0
16.09.2020 06:00:00 15,6 14,8 3 2 6 3 N 0 0,0
16.09.2020 05:00:00 15,5 14,5 2 1 6 3 NW 0 0,0
16.09.2020 04:00:00 16,8 14,6 2 1 9 5 E 0 0,0
16.09.2020 03:00:00 18,4 15,1 6 4 11 6 NNE 0 0,0
16.09.2020 02:00:00 17,5 15,3 3 2 9 5 N 0 0,0
16.09.2020 01:00:00 18,6 15,3 8 4 13 7 NNE 0 0,0
16.09.2020 00:00:00 17,8 15,1 4 2 8 5 N 0 0,0
15.09.2020 23:00:00 19,9 15,1 6 3 12 6 NE 0 0,0
15.09.2020 22:00:00 - - - - - - - - -
15.09.2020 21:00:00 21,2 18,2 2 1 8 5 ENE 0 0,0
15.09.2020 20:00:00 22,0 18,8 3 1 9 5 ESE 0 0,0
15.09.2020 19:00:00 22,8 18,8 3 2 15 8 W 0 0,0
15.09.2020 18:00:00 23,1 18,4 8 4 20 11 SW 0 0,0
15.09.2020 17:00:00 27,3 17,8 3 2 12 7 WSW 7 0,0
15.09.2020 16:00:00 26,6 17,4 5 3 14 8 WSW 5 0,0
15.09.2020 15:00:00 27,1 15,1 6 3 16 8 N 39 0,0
15.09.2020 14:00:00 25,6 18,8 4 2 9 5 WSW 11 0,0
15.09.2020 13:00:00 23,7 17,9 4 2 15 8 W 0 0,0
15.09.2020 12:00:00 23,1 17,8 8 5 16 9 SW 21 0,0
15.09.2020 11:00:00 22,1 18,1 5 3 20 11 WSW 0 0,0
15.09.2020 10:00:00 19,7 17,1 2 1 15 8 S 0 0,2
15.09.2020 09:00:00 18,7 16,8 9 5 18 10 N 31 0,0
15.09.2020 08:00:00 17,2 17,0 8 5 13 7 NNE 0 0,0
15.09.2020 07:00:00 16,7 16,4 2 1 10 6 NW 0 0,0
15.09.2020 06:00:00 18,6 18,4 6 3 24 13 W 0 0,0
15.09.2020 05:00:00 16,5 16,3 4 2 8 4 E 0 0,0
15.09.2020 04:00:00 15,8 15,5 4 2 5 3 ESE 0 0,0
15.09.2020 03:00:00 16,1 15,6 0 0 6 4 N 0 0,0
15.09.2020 02:00:00 16,7 16,4 4 2 11 6 W 0 0,0
15.09.2020 01:00:00 16,6 16,1 4 2 9 5 ENE 0 0,0
15.09.2020 00:00:00 16,7 16,2 5 3 9 5 SSW 0 0,0
14.09.2020 23:00:00 16,8 16,2 4 2 8 5 NE 0 0,0
14.09.2020 22:00:00 17,8 16,8 2 1 6 4 N 0 0,0

tt = Température de l'air
td = dewpoint
ff = Vitesse du vent
fx = gusts
dd = Direction du vent
sd = Ensoleillement
rr = Quantités de précipitations

stations d'obs. à proximité